Time;durP1;ratioP1;P1;durP2;ratioP2;P2;SDS_P1;SDS_P2;PMS_P1;PMS_P2;Temp;Humidity;BMP_temperature;BMP_pressure;BME280_temperature;BME280_humidity;BME280_pressure;Samples;Min_cycle;Max_cycle;Signal;HPM_P1;HPM_P2
2022/03/11 00:01:12;;;;;;;2.13;1.27;;;3.90;41.00;3.20;98607.00;;;;5074525;28;20220;-72
2022/03/11 00:03:39;;;;;;;1.77;1.67;;;4.00;41.40;3.30;98614.00;;;;5074828;28;20211;-73
2022/03/11 00:06:05;;;;;;;1.27;1.27;;;4.00;41.60;3.40;98614.00;;;;5074486;28;20298;-73
2022/03/11 00:08:32;;;;;;;2.20;1.40;;;4.20;41.60;3.40;98601.00;;;;5057217;28;20580;-73
2022/03/11 00:10:58;;;;;;;1.80;1.70;;;4.20;41.90;3.40;98611.00;;;;5074473;28;20654;-73
2022/03/11 00:13:26;;;;;;;1.73;1.63;;;4.20;42.00;3.50;98602.00;;;;5074702;28;20278;-72
2022/03/11 00:15:53;;;;;;;3.70;1.47;;;4.30;42.90;3.50;98598.00;;;;5057284;28;20240;-73
2022/03/11 00:18:20;;;;;;;1.73;1.40;;;4.40;42.30;3.60;98603.00;;;;5074506;28;20221;-73
2022/03/11 00:20:46;;;;;;;1.80;1.53;;;4.40;42.10;3.60;98609.00;;;;5074500;28;20214;-73
2022/03/11 00:23:13;;;;;;;5.00;1.57;;;4.40;42.40;3.70;98596.00;;;;5074920;28;20611;-73
2022/03/11 00:25:41;;;;;;;1.90;1.80;;;4.50;42.60;3.70;98602.00;;;;5074533;28;20223;-73
2022/03/11 00:28:08;;;;;;;1.83;1.73;;;4.50;42.40;3.80;98597.00;;;;5074352;28;20252;-73
2022/03/11 00:30:38;;;;;;;5.23;2.90;;;4.50;42.70;3.80;98597.00;;;;5074536;28;20199;-74
2022/03/11 00:33:07;;;;;;;2.07;1.87;;;4.60;42.50;3.80;98596.00;;;;5074269;28;20195;-73
2022/03/11 00:35:34;;;;;;;2.67;2.23;;;4.60;42.60;3.80;98602.00;;;;5056189;28;20535;-73
2022/03/11 00:38:00;;;;;;;2.03;1.93;;;4.60;42.60;3.70;98603.00;;;;5074128;28;20239;-73
2022/03/11 00:40:27;;;;;;;1.67;1.57;;;4.60;42.50;3.80;98608.00;;;;5074275;28;20195;-73
2022/03/11 00:42:56;;;;;;;1.20;1.20;;;4.60;42.70;3.80;98594.00;;;;5074151;28;20199;-71
2022/03/11 00:45:23;;;;;;;2.53;2.33;;;4.60;42.80;3.80;98593.00;;;;5056556;28;20223;-73
2022/03/11 00:47:50;;;;;;;4.17;3.10;;;4.60;43.00;3.80;98597.00;;;;5074030;28;20283;-73
2022/03/11 00:50:16;;;;;;;2.87;1.83;;;4.60;42.80;3.80;98590.00;;;;5074052;28;20195;-73
2022/03/11 00:52:43;;;;;;;1.53;1.40;;;4.60;42.90;3.70;98594.00;;;;5074002;28;20194;-73
2022/03/11 00:55:11;;;;;;;1.07;1.07;;;4.50;43.10;3.70;98589.00;;;;5074135;28;20214;-74
2022/03/11 00:57:38;;;;;;;2.20;2.07;;;4.50;43.20;3.60;98599.00;;;;5073970;28;20199;-73
2022/03/11 01:00:06;;;;;;;1.90;1.80;;;4.50;43.60;3.60;98599.00;;;;5074181;28;20210;-73
2022/03/11 01:02:36;;;;;;;1.63;1.53;;;4.40;43.70;3.70;98598.00;;;;5073981;28;20240;-75
2022/03/11 01:05:07;;;;;;;1.50;1.40;;;4.50;43.70;3.70;98594.00;;;;5073735;28;20564;-75
2022/03/11 01:07:35;;;;;;;1.90;1.60;;;4.50;43.60;3.70;98597.00;;;;5073723;28;20248;-73
2022/03/11 01:10:02;;;;;;;1.80;1.67;;;4.50;43.40;3.70;98603.00;;;;5073858;28;20593;-74
2022/03/11 01:12:29;;;;;;;1.73;1.63;;;4.40;43.80;3.60;98598.00;;;;5073656;28;20203;-73
2022/03/11 01:14:57;;;;;;;3.03;2.83;;;4.40;43.60;3.50;98581.00;;;;5073696;28;20588;-75
2022/03/11 01:17:26;;;;;;;2.47;2.27;;;4.30;43.60;3.40;98591.00;;;;5056064;28;20199;-73
2022/03/11 01:19:53;;;;;;;5.43;2.63;;;4.20;43.80;3.40;98585.00;;;;5073593;28;20235;-73
2022/03/11 01:22:20;;;;;;;1.07;1.07;;;4.20;44.10;3.30;98581.00;;;;5072621;28;20236;-73
2022/03/11 01:24:49;;;;;;;1.83;1.73;;;4.10;45.20;3.20;98590.00;;;;5073430;28;20229;-72
2022/03/11 01:27:18;;;;;;;1.90;1.40;;;4.10;44.80;3.30;98581.00;;;;5073473;28;20642;-73
2022/03/11 01:29:44;;;;;;;2.73;1.70;;;4.10;44.90;3.30;98586.00;;;;5073400;28;20210;-73
2022/03/11 01:32:11;;;;;;;3.20;2.37;;;4.00;44.80;3.20;98579.00;;;;5073314;28;20269;-72
2022/03/11 01:34:37;;;;;;;1.37;1.37;;;4.00;44.90;3.20;98582.00;;;;5073413;28;20237;-73
2022/03/11 01:37:07;;;;;;;1.57;1.47;;;4.00;44.90;3.10;98580.00;;;;5073320;28;20302;-75
2022/03/11 01:39:37;;;;;;;2.17;2.00;;;3.90;45.50;3.10;98578.00;;;;5073309;28;20643;-73
2022/03/11 01:42:04;;;;;;;1.77;1.40;;;3.90;45.50;3.10;98587.00;;;;5073216;28;20638;-73
2022/03/11 01:44:30;;;;;;;2.23;2.13;;;3.90;45.80;3.00;98586.00;;;;5073234;28;20428;-73
2022/03/11 01:46:57;;;;;;;2.07;1.97;;;3.90;46.10;3.10;98586.00;;;;5075576;28;20218;-73
2022/03/11 01:49:24;;;;;;;1.97;1.87;;;3.80;46.00;3.00;98579.00;;;;5059469;28;20191;-73
2022/03/11 01:51:51;;;;;;;0.83;0.83;;;3.80;46.10;3.00;98529.00;;;;5076745;28;20225;-72
2022/03/11 01:54:17;;;;;;;1.37;1.33;;;3.80;45.90;3.00;98575.00;;;;5076814;28;20195;-73
2022/03/11 01:56:44;;;;;;;1.40;1.30;;;3.70;45.90;2.90;98577.00;;;;5076600;28;20254;-73
2022/03/11 01:59:11;;;;;;;2.07;1.97;;;3.70;46.40;2.80;98573.00;;;;5058880;28;20206;-73
2022/03/11 02:01:38;;;;;;;2.90;2.10;;;3.70;47.10;2.80;98573.00;;;;5076514;28;20199;-73
2022/03/11 02:04:05;;;;;;;4.03;2.30;;;3.60;46.40;2.80;98566.00;;;;5076526;28;20218;-73
2022/03/11 02:06:33;;;;;;;1.13;1.13;;;3.60;47.00;2.70;98558.00;;;;5076386;28;20253;-73
2022/03/11 02:09:02;;;;;;;1.73;1.63;;;3.60;47.30;2.70;98562.00;;;;5076450;28;20336;-73
2022/03/11 02:11:29;;;;;;;1.73;1.63;;;3.50;47.60;2.70;98561.00;;;;5058671;28;20250;-73
2022/03/11 02:13:59;;;;;;;2.27;2.10;;;3.60;47.30;2.80;98565.00;;;;5076376;28;20219;-73
2022/03/11 02:16:30;;;;;;;1.87;1.77;;;3.60;47.60;2.80;98563.00;;;;5076703;28;20308;-73
2022/03/11 02:18:58;;;;;;;1.80;1.70;;;3.60;47.50;2.80;98553.00;;;;5058705;28;20227;-73
2022/03/11 02:21:27;;;;;;;1.97;1.87;;;3.70;47.60;2.90;98556.00;;;;5058589;28;20294;-72
2022/03/11 02:23:59;;;;;;;1.80;1.70;;;3.70;47.60;2.90;98553.00;;;;5076252;28;20248;-73
2022/03/11 02:26:28;;;;;;;1.60;1.60;;;3.70;47.40;2.90;98555.00;;;;5076189;28;20232;-73
2022/03/11 02:28:58;;;;;;;2.67;2.47;;;3.70;47.50;2.80;98556.00;;;;5058524;28;20264;-74
2022/03/11 02:31:30;;;;;;;1.83;1.73;;;3.70;47.50;2.90;98550.00;;;;5076112;28;20230;-73
2022/03/11 02:33:58;;;;;;;2.30;2.10;;;3.70;47.60;2.90;98554.00;;;;5076344;28;20252;-74
2022/03/11 02:36:25;;;;;;;2.03;1.90;;;3.70;47.50;2.90;98552.00;;;;5076061;28;20259;-74
2022/03/11 02:38:52;;;;;;;7.03;1.83;;;3.70;47.30;2.80;98555.00;;;;5076272;28;20913;-74
2022/03/11 02:41:20;;;;;;;3.17;2.23;;;3.60;47.80;2.80;98551.00;;;;5076077;28;20206;-74
2022/03/11 02:43:47;;;;;;;2.97;2.77;;;3.60;47.40;2.80;98560.00;;;;5075858;28;20237;-74
2022/03/11 02:46:14;;;;;;;2.30;1.97;;;3.60;47.30;2.70;98528.00;;;;5075870;28;20760;-73
2022/03/11 02:48:41;;;;;;;1.50;1.50;;;3.50;47.50;2.60;98548.00;;;;5076087;28;20639;-73
2022/03/11 02:51:08;;;;;;;1.10;1.10;;;3.50;47.70;2.50;98552.00;;;;5075920;28;20234;-71
2022/03/11 02:53:40;;;;;;;2.27;2.10;;;3.40;47.80;2.50;98550.00;;;;5058535;28;20512;-74
2022/03/11 02:56:07;;;;;;;2.03;1.93;;;3.40;48.20;2.50;98545.00;;;;5075858;28;20256;-74
2022/03/11 02:58:36;;;;;;;2.40;2.17;;;3.40;48.30;2.60;98536.00;;;;5075312;28;20222;-73
2022/03/11 03:01:03;;;;;;;1.67;1.57;;;3.40;48.50;2.60;98543.00;;;;5075707;28;20211;-72
2022/03/11 03:03:30;;;;;;;2.53;2.23;;;3.50;48.40;2.60;98546.00;;;;5075618;28;20281;-72
2022/03/11 03:05:56;;;;;;;3.30;2.97;;;3.40;48.30;2.50;98538.00;;;;5075860;28;20195;-73
2022/03/11 03:08:23;;;;;;;2.83;2.10;;;3.40;48.20;2.50;98520.00;;;;5075912;28;20227;-73
2022/03/11 03:10:49;;;;;;;2.17;1.97;;;3.30;48.40;2.50;98539.00;;;;5075644;28;20230;-72
2022/03/11 03:13:16;;;;;;;4.90;2.90;;;3.40;48.30;2.60;98541.00;;;;5075609;28;20198;-73
2022/03/11 03:15:43;;;;;;;2.30;2.10;;;3.40;48.50;2.50;98541.00;;;;5075607;28;20280;-71
2022/03/11 03:18:10;;;;;;;4.10;2.07;;;3.40;48.50;2.50;98535.00;;;;5075388;28;20224;-73
2022/03/11 03:20:36;;;;;;;2.30;2.20;;;3.40;48.40;2.40;98536.00;;;;5075313;28;20210;-72
2022/03/11 03:23:06;;;;;;;2.73;2.47;;;3.30;48.70;2.40;98540.00;;;;5075314;28;20210;-72
2022/03/11 03:25:32;;;;;;;2.43;2.23;;;3.30;48.60;2.30;98522.00;;;;5057702;28;20210;-72
2022/03/11 03:27:59;;;;;;;3.27;2.97;;;3.20;48.30;2.30;98538.00;;;;5075232;28;20226;-72
2022/03/11 03:30:25;;;;;;;1.80;1.70;;;3.20;48.50;2.20;98530.00;;;;5075039;28;20518;-73
2022/03/11 03:32:53;;;;;;;3.77;3.00;;;3.10;48.60;2.10;98536.00;;;;5075238;28;20550;-73
2022/03/11 03:35:19;;;;;;;3.30;2.03;;;3.10;48.60;2.20;98528.00;;;;5075397;28;20194;-73
2022/03/11 03:37:46;;;;;;;4.10;2.20;;;3.10;48.90;2.10;98537.00;;;;5075002;28;20546;-73
2022/03/11 03:40:13;;;;;;;1.93;1.53;;;3.00;48.90;2.20;98527.00;;;;5057781;28;20534;-72
2022/03/11 03:42:45;;;;;;;1.93;1.83;;;3.00;49.00;2.10;98519.00;;;;5075093;28;20210;-72
2022/03/11 03:45:11;;;;;;;2.17;2.00;;;3.00;49.70;2.00;98528.00;;;;5074972;28;20249;-72
2022/03/11 03:47:38;;;;;;;1.97;1.87;;;2.90;49.10;2.00;98534.00;;;;5075038;28;20229;-73
2022/03/11 03:50:06;;;;;;;2.97;2.43;;;2.90;49.20;2.00;98530.00;;;;5074910;28;20205;-73
2022/03/11 03:52:33;;;;;;;3.10;2.90;;;2.90;49.50;2.10;98530.00;;;;5074860;28;20201;-73
2022/03/11 03:55:00;;;;;;;3.67;3.37;;;2.80;49.40;1.90;98518.00;;;;5057126;28;20202;-73
2022/03/11 03:57:27;;;;;;;3.10;2.80;;;2.80;48.70;1.80;98526.00;;;;5075065;28;20296;-73
2022/03/11 03:59:53;;;;;;;1.60;1.50;;;2.80;49.10;1.80;98523.00;;;;5074802;28;20263;-73
2022/03/11 04:02:22;;;;;;;2.87;2.53;;;2.70;49.60;1.80;98528.00;;;;5074632;28;20674;-73
2022/03/11 04:04:49;;;;;;;5.10;2.83;;;2.70;49.50;1.80;98527.00;;;;5074566;28;20218;-73
2022/03/11 04:07:18;;;;;;;3.40;2.60;;;2.70;49.40;1.80;98530.00;;;;5073621;28;20225;-73
2022/03/11 04:09:47;;;;;;;3.87;3.00;;;2.70;49.30;1.70;98518.00;;;;5073447;28;20212;-74
2022/03/11 04:12:14;;;;;;;1.67;1.57;;;2.60;49.50;1.70;98523.00;;;;5074559;28;20728;-72
2022/03/11 04:14:41;;;;;;;2.20;2.10;;;2.70;49.40;1.80;98523.00;;;;5074568;28;20197;-73
2022/03/11 04:17:07;;;;;;;3.27;3.07;;;2.60;49.10;1.60;98535.00;;;;5074506;28;20381;-73
2022/03/11 04:19:36;;;;;;;3.63;2.77;;;2.50;49.30;1.80;98525.00;;;;5074578;28;20294;-73
2022/03/11 04:22:03;;;;;;;1.73;1.63;;;2.50;49.50;1.80;98537.00;;;;5074549;28;20201;-73
2022/03/11 04:24:30;;;;;;;1.97;1.87;;;2.60;49.30;1.80;98525.00;;;;5074235;28;20222;-73
2022/03/11 04:26:59;;;;;;;3.57;2.50;;;2.60;49.30;1.90;98529.00;;;;5074272;28;20250;-73
2022/03/11 04:29:26;;;;;;;5.30;2.37;;;2.60;49.30;1.80;98538.00;;;;5074344;28;20250;-73
2022/03/11 04:32:01;;;;;;;2.07;1.97;;;2.60;48.90;1.80;98527.00;;;;5172928;27;20310;-72
2022/03/11 04:34:28;;;;;;;4.43;2.90;;;2.60;48.80;1.70;98522.00;;;;5151835;27;20618;-72
2022/03/11 04:36:56;;;;;;;2.23;2.03;;;2.60;48.60;1.80;98527.00;;;;5133955;27;20259;-72
2022/03/11 04:39:26;;;;;;;3.80;2.67;;;2.50;48.70;1.70;98522.00;;;;5151936;27;20198;-72
2022/03/11 04:41:53;;;;;;;6.97;2.10;;;2.50;48.50;1.60;98538.00;;;;5151846;27;20196;-72
2022/03/11 04:44:20;;;;;;;2.13;1.93;;;2.40;48.20;1.50;98540.00;;;;5151757;27;20560;-73
2022/03/11 04:46:47;;;;;;;1.80;1.70;;;2.40;48.20;1.50;98530.00;;;;5151732;27;20226;-72
2022/03/11 04:49:17;;;;;;;2.40;2.20;;;2.40;48.40;1.30;98534.00;;;;5151772;27;20269;-72
2022/03/11 04:51:46;;;;;;;2.17;2.07;;;2.30;48.80;1.30;98522.00;;;;5151523;27;20230;-72
2022/03/11 04:54:12;;;;;;;1.60;1.50;;;2.20;48.90;1.40;98529.00;;;;5151682;27;20207;-72
2022/03/11 04:56:39;;;;;;;5.07;1.97;;;2.20;49.30;1.40;98525.00;;;;5151737;27;20332;-73
2022/03/11 04:59:05;;;;;;;2.00;1.90;;;2.20;48.90;1.40;98521.00;;;;5151558;27;20203;-73
2022/03/11 05:01:32;;;;;;;2.60;2.40;;;2.10;49.00;1.40;98540.00;;;;5151641;27;20581;-72
2022/03/11 05:03:58;;;;;;;3.53;2.90;;;2.20;49.10;1.30;98519.00;;;;5133346;27;20386;-72
2022/03/11 05:06:26;;;;;;;1.30;1.30;;;2.20;48.90;1.20;98522.00;;;;5133527;27;20201;-72
2022/03/11 05:08:53;;;;;;;1.37;1.27;;;2.10;49.00;1.30;98517.00;;;;5151406;27;20620;-72
2022/03/11 05:11:19;;;;;;;2.53;2.33;;;2.10;49.00;1.20;98529.00;;;;5151223;27;20222;-72
2022/03/11 05:13:46;;;;;;;1.37;1.27;;;2.10;49.10;1.00;98528.00;;;;5151379;27;20649;-72
2022/03/11 05:16:12;;;;;;;2.93;2.20;;;2.00;49.30;1.00;98511.00;;;;5151473;27;20310;-70
2022/03/11 05:18:39;;;;;;;3.33;2.23;;;1.90;49.50;1.10;98529.00;;;;5133181;27;20216;-72
2022/03/11 05:21:08;;;;;;;3.10;2.67;;;1.90;49.30;1.00;98534.00;;;;5133030;27;20198;-72
2022/03/11 05:23:35;;;;;;;1.57;1.47;;;1.80;49.00;1.00;98536.00;;;;5151134;27;20222;-72
2022/03/11 05:26:02;;;;;;;2.53;2.30;;;1.80;49.10;0.90;98548.00;;;;5151267;27;20214;-72
2022/03/11 05:28:31;;;;;;;1.70;1.60;;;1.80;48.80;0.90;98554.00;;;;5151090;27;20635;-72
2022/03/11 05:30:58;;;;;;;1.43;1.43;;;1.80;49.10;1.00;98544.00;;;;5150885;27;20225;-71
2022/03/11 05:33:24;;;;;;;2.13;2.00;;;1.80;48.80;0.90;98537.00;;;;5151078;27;20647;-72
2022/03/11 05:35:53;;;;;;;1.90;1.80;;;1.70;48.90;0.90;98551.00;;;;5150987;27;20214;-72
2022/03/11 05:38:20;;;;;;;1.53;1.50;;;1.70;49.50;0.80;98554.00;;;;5151076;27;20492;-72
2022/03/11 05:40:47;;;;;;;2.97;2.07;;;1.60;48.70;0.70;98553.00;;;;5150992;27;20291;-72
2022/03/11 05:43:13;;;;;;;3.93;2.23;;;1.60;49.10;0.80;98549.00;;;;5137759;27;20194;-72
2022/03/11 05:45:41;;;;;;;4.43;1.67;;;1.60;49.10;0.60;98549.00;;;;5118840;28;20222;-73
2022/03/11 05:48:08;;;;;;;3.67;1.83;;;1.60;49.00;0.60;98547.00;;;;5136860;28;20626;-72
2022/03/11 05:50:34;;;;;;;8.27;2.53;;;1.50;49.00;0.60;98545.00;;;;5136737;28;20225;-73
2022/03/11 05:53:03;;;;;;;2.13;1.83;;;1.50;48.90;0.60;98550.00;;;;5136913;28;20685;-73
2022/03/11 05:55:31;;;;;;;1.70;1.60;;;1.50;48.60;0.60;98551.00;;;;5136897;28;20198;-72
2022/03/11 05:58:01;;;;;;;3.43;2.47;;;1.50;48.60;0.60;98547.00;;;;5136774;28;20229;-72
2022/03/11 06:00:27;;;;;;;2.07;1.87;;;1.50;48.50;0.50;98542.00;;;;5136816;28;20190;-73
2022/03/11 06:02:54;;;;;;;1.70;1.60;;;1.40;48.30;0.60;98542.00;;;;5136800;28;20194;-73
2022/03/11 06:05:20;;;;;;;2.20;2.10;;;1.40;49.10;0.60;98539.00;;;;5136904;28;20193;-73
2022/03/11 06:07:47;;;;;;;1.17;1.17;;;1.40;48.10;0.60;98543.00;;;;5136760;28;20217;-72
2022/03/11 06:10:16;;;;;;;2.93;2.70;;;1.40;47.20;0.60;98543.00;;;;5136544;28;20229;-72
2022/03/11 06:12:42;;;;;;;1.70;1.60;;;1.40;47.80;0.60;98525.00;;;;5136648;28;20213;-72
2022/03/11 06:15:11;;;;;;;2.23;2.13;;;1.40;47.90;0.60;98529.00;;;;5136567;28;20205;-71
2022/03/11 06:17:39;;;;;;;1.17;1.17;;;1.40;48.00;0.80;98545.00;;;;5136364;28;20225;-73
2022/03/11 06:20:09;;;;;;;2.17;1.97;;;1.50;47.90;0.70;98539.00;;;;5136461;28;20666;-73
2022/03/11 06:22:36;;;;;;;1.77;1.67;;;1.50;47.90;0.70;98551.00;;;;5136659;28;20292;-73
2022/03/11 06:25:03;;;;;;;2.37;2.17;;;1.50;48.00;0.80;98547.00;;;;5136631;28;20286;-73
2022/03/11 06:27:32;;;;;;;1.47;1.43;;;1.60;48.20;0.80;98543.00;;;;5136882;28;20234;-74
2022/03/11 06:29:58;;;;;;;2.70;2.53;;;1.60;47.90;0.80;98546.00;;;;5142480;28;20195;-73
2022/03/11 06:32:25;;;;;;;3.23;2.10;;;1.60;47.50;0.90;98548.00;;;;5145913;28;20227;-71
2022/03/11 06:34:54;;;;;;;1.37;1.27;;;1.70;47.70;0.80;98546.00;;;;5144598;28;20268;-73
2022/03/11 06:37:21;;;;;;;1.80;1.63;;;1.70;47.70;0.90;98543.00;;;;5146197;28;20237;-75
2022/03/11 06:39:47;;;;;;;1.43;1.33;;;1.70;47.80;0.80;98549.00;;;;5149170;28;20204;-74
2022/03/11 06:42:14;;;;;;;2.10;1.87;;;1.70;48.60;1.00;98551.00;;;;5137647;28;20205;-74
2022/03/11 06:44:40;;;;;;;1.93;1.83;;;1.80;47.90;1.00;98546.00;;;;5119585;28;20530;-72
2022/03/11 06:47:07;;;;;;;1.10;1.10;;;1.90;47.40;1.00;98547.00;;;;5119312;28;20198;-75
2022/03/11 06:49:35;;;;;;;2.70;2.27;;;1.90;47.10;1.10;98539.00;;;;5137147;28;20207;-74
2022/03/11 06:52:01;;;;;;;1.07;1.07;;;1.90;46.80;1.10;98547.00;;;;5136402;28;20542;-74
2022/03/11 06:54:28;;;;;;;1.57;1.50;;;2.00;46.80;1.20;98539.00;;;;5135304;27;20198;-74
2022/03/11 06:56:56;;;;;;;1.20;1.20;;;2.00;46.40;1.30;98540.00;;;;5137693;28;20222;-73
2022/03/11 06:59:23;;;;;;;2.00;1.60;;;2.10;46.00;1.40;98526.00;;;;5143528;28;20196;-75
2022/03/11 07:01:49;;;;;;;1.73;1.63;;;2.20;45.10;1.40;98542.00;;;;5146876;28;20194;-75
2022/03/11 07:04:16;;;;;;;0.90;0.90;;;2.30;44.50;1.50;98541.00;;;;5146560;28;20228;-75
2022/03/11 07:06:43;;;;;;;3.50;1.30;;;2.30;44.10;1.70;98548.00;;;;5127650;28;20264;-74
2022/03/11 07:09:12;;;;;;;2.40;1.83;;;2.40;43.20;1.80;98514.00;;;;5137845;28;20195;-71
2022/03/11 07:11:39;;;;;;;3.67;1.50;;;2.50;42.80;1.80;98558.00;;;;5136402;28;20222;-71
2022/03/11 07:14:06;;;;;;;1.70;1.60;;;2.60;42.90;1.90;98551.00;;;;5118291;28;20257;-73
2022/03/11 07:16:32;;;;;;;1.30;1.30;;;2.70;42.50;2.00;98549.00;;;;5135867;28;20233;-72
2022/03/11 07:18:59;;;;;;;1.73;1.63;;;2.80;41.50;2.10;98551.00;;;;5135839;28;20558;-72
2022/03/11 07:21:28;;;;;;;2.10;1.87;;;2.90;40.90;2.10;98545.00;;;;5135647;28;20223;-73
2022/03/11 07:23:57;;;;;;;2.40;1.77;;;2.90;40.60;2.30;98552.00;;;;5117667;28;20249;-72
2022/03/11 07:26:23;;;;;;;2.40;1.47;;;3.00;39.70;2.30;98556.00;;;;5135576;28;20204;-71
2022/03/11 07:28:50;;;;;;;1.70;1.60;;;3.10;39.60;2.50;98561.00;;;;5135421;28;20227;-71
2022/03/11 07:31:16;;;;;;;1.43;1.20;;;3.20;39.40;2.70;98559.00;;;;5135350;28;20546;-73
2022/03/11 07:33:45;;;;;;;0.80;0.80;;;3.30;39.10;2.50;98556.00;;;;5135469;28;20220;-71
2022/03/11 07:36:12;;;;;;;1.47;1.37;;;3.40;38.80;2.80;98570.00;;;;5135314;28;20255;-71
2022/03/11 07:38:38;;;;;;;1.63;1.53;;;3.50;38.50;2.60;98570.00;;;;5135290;28;20268;-71
2022/03/11 07:41:07;;;;;;;1.40;1.30;;;3.50;38.20;2.80;98556.00;;;;5135340;28;20235;-72
2022/03/11 07:43:35;;;;;;;1.37;1.37;;;3.60;38.00;2.80;98560.00;;;;5135160;28;20188;-72
2022/03/11 07:46:02;;;;;;;1.37;1.37;;;3.60;38.10;3.00;98562.00;;;;5135227;28;20287;-71
2022/03/11 07:48:29;;;;;;;3.17;2.00;;;3.70;37.70;3.10;98560.00;;;;5135023;28;20220;-71
2022/03/11 07:50:55;;;;;;;4.00;1.73;;;3.80;37.70;3.10;98539.00;;;;5135148;28;20280;-71
2022/03/11 07:53:22;;;;;;;2.53;2.30;;;3.90;37.40;3.10;98554.00;;;;5135177;28;20571;-72
2022/03/11 07:55:48;;;;;;;4.50;2.23;;;3.90;37.30;3.20;98552.00;;;;5135107;28;20232;-72
2022/03/11 07:58:15;;;;;;;1.30;1.20;;;4.00;37.10;3.30;98557.00;;;;5135010;28;20197;-72
2022/03/11 08:00:42;;;;;;;1.00;1.00;;;4.00;37.10;3.40;98557.00;;;;5134907;28;20284;-73
2022/03/11 08:03:09;;;;;;;1.60;1.50;;;4.10;36.50;3.50;98550.00;;;;5134978;28;20211;-72
2022/03/11 08:05:36;;;;;;;0.97;0.97;;;4.20;36.20;3.60;98556.00;;;;5134557;27;20204;-72
2022/03/11 08:08:02;;;;;;;1.07;1.07;;;4.30;36.20;3.70;98553.00;;;;5134826;28;20352;-71
2022/03/11 08:10:33;;;;;;;1.63;1.53;;;4.40;35.40;3.70;98553.00;;;;5134683;28;20245;-72
2022/03/11 08:13:00;;;;;;;2.60;2.40;;;4.40;34.70;3.70;98548.00;;;;5116911;28;20240;-72
2022/03/11 08:15:27;;;;;;;1.97;1.87;;;4.50;35.20;3.90;98558.00;;;;5134713;28;20239;-71
2022/03/11 08:17:54;;;;;;;1.97;1.87;;;4.60;35.00;4.00;98548.00;;;;5134845;28;20207;-73
2022/03/11 08:20:21;;;;;;;2.93;1.87;;;4.70;34.90;4.20;98547.00;;;;5134680;28;20192;-71
2022/03/11 08:22:48;;;;;;;2.50;1.67;;;4.90;34.10;4.20;98549.00;;;;5134758;28;20279;-73
2022/03/11 08:25:15;;;;;;;2.00;1.40;;;4.90;34.30;4.20;98552.00;;;;5116591;28;20304;-72
2022/03/11 08:27:43;;;;;;;1.87;1.67;;;4.90;34.00;4.40;98553.00;;;;5134520;28;20231;-72
2022/03/11 08:30:11;;;;;;;1.50;1.40;;;5.10;34.00;4.40;98546.00;;;;5116472;28;20201;-71
2022/03/11 08:32:40;;;;;;;1.47;1.40;;;5.10;33.30;4.40;98546.00;;;;5116491;28;20637;-72
2022/03/11 08:35:09;;;;;;;1.23;1.23;;;5.10;33.90;4.50;98544.00;;;;5134539;28;20194;-72
2022/03/11 08:37:38;;;;;;;1.93;1.80;;;5.20;33.90;4.70;98537.00;;;;5134510;28;20165;-71
2022/03/11 08:40:07;;;;;;;2.83;2.40;;;5.40;33.50;4.80;98552.00;;;;5116540;28;20551;-71
2022/03/11 08:42:34;;;;;;;0.77;0.77;;;5.40;33.40;4.90;98535.00;;;;5134784;28;20197;-72
2022/03/11 08:45:01;;;;;;;4.63;1.87;;;5.60;33.70;5.00;98555.00;;;;5116601;28;20197;-72
2022/03/11 08:47:28;;;;;;;1.13;1.13;;;5.70;33.90;4.90;98555.00;;;;5134282;28;20232;-72
2022/03/11 08:49:55;;;;;;;2.63;2.43;;;5.70;33.10;4.90;98543.00;;;;5134442;28;20276;-72
2022/03/11 08:52:24;;;;;;;1.40;1.30;;;5.70;33.10;4.90;98548.00;;;;5134521;28;20205;-71
2022/03/11 08:54:51;;;;;;;1.00;1.00;;;5.70;32.80;5.00;98548.00;;;;5134504;28;20220;-73
2022/03/11 08:57:18;;;;;;;1.70;1.60;;;5.80;33.40;5.10;98537.00;;;;5134410;28;20594;-73
2022/03/11 08:59:45;;;;;;;1.50;1.40;;;5.80;33.10;5.20;98529.00;;;;5134231;28;20218;-73
2022/03/11 09:02:13;;;;;;;2.33;2.23;;;5.90;32.70;5.40;98529.00;;;;5134391;28;20712;-74
2022/03/11 09:04:39;;;;;;;1.37;1.37;;;6.00;32.50;5.50;98531.00;;;;5116217;28;20617;-74
2022/03/11 09:07:10;;;;;;;1.40;1.20;;;6.10;32.50;5.60;98536.00;;;;5134511;28;20231;-73
2022/03/11 09:09:36;;;;;;;1.23;1.20;;;6.30;32.40;5.70;98527.00;;;;5134226;28;20709;-73
2022/03/11 09:12:04;;;;;;;2.43;1.83;;;6.40;32.20;5.80;98515.00;;;;5133988;28;20221;-73
2022/03/11 09:14:31;;;;;;;1.90;1.80;;;6.50;31.70;5.80;98505.00;;;;5134276;28;20335;-73
2022/03/11 09:16:58;;;;;;;1.90;1.70;;;6.50;32.00;5.80;98515.00;;;;5134627;27;20262;-73
2022/03/11 09:19:24;;;;;;;1.80;1.70;;;6.50;32.10;6.00;98518.00;;;;5119371;28;20571;-73
2022/03/11 09:21:51;;;;;;;1.93;1.83;;;6.70;31.60;6.10;98522.00;;;;5137445;28;20274;-70
2022/03/11 09:24:18;;;;;;;1.27;1.27;;;6.80;31.30;6.20;98506.00;;;;5137452;28;20229;-72
2022/03/11 09:26:45;;;;;;;1.37;1.27;;;6.90;31.30;6.30;98505.00;;;;5137490;28;20266;-71
2022/03/11 09:29:12;;;;;;;1.87;1.57;;;7.00;31.10;6.30;98498.00;;;;5137402;28;20657;-72
2022/03/11 09:31:38;;;;;;;1.77;1.67;;;7.10;31.10;6.40;98502.00;;;;5120399;28;20557;-72
2022/03/11 09:34:05;;;;;;;2.87;1.33;;;7.10;31.70;6.40;98504.00;;;;5138743;28;20205;-72
2022/03/11 09:36:31;;;;;;;1.93;1.83;;;7.10;31.40;6.50;98478.00;;;;5137249;28;20701;-72
2022/03/11 09:39:00;;;;;;;1.43;1.33;;;7.30;31.10;6.60;98508.00;;;;5137319;28;20226;-72
2022/03/11 09:41:28;;;;;;;1.70;1.60;;;7.30;31.10;6.70;98498.00;;;;5137243;28;20196;-74
2022/03/11 09:43:56;;;;;;;2.23;1.63;;;7.40;30.90;6.80;98493.00;;;;5137317;28;20211;-74
2022/03/11 09:46:25;;;;;;;1.37;1.30;;;7.50;31.00;7.00;98491.00;;;;5137082;28;20530;-73
2022/03/11 09:48:52;;;;;;;1.27;1.27;;;7.70;30.40;7.10;98501.00;;;;5137047;28;20261;-75
2022/03/11 09:51:20;;;;;;;3.83;1.73;;;7.80;29.70;7.20;98487.00;;;;5136941;28;20217;-73
2022/03/11 09:53:49;;;;;;;1.73;1.63;;;7.80;29.90;7.30;98492.00;;;;5137055;28;20675;-73
2022/03/11 09:56:16;;;;;;;0.90;0.90;;;8.00;29.60;7.30;98491.00;;;;5118810;28;20209;-73
2022/03/11 09:58:43;;;;;;;2.53;2.00;;;8.00;29.40;7.30;98493.00;;;;5136820;28;20238;-72
2022/03/11 10:01:09;;;;;;;2.10;1.40;;;8.00;29.90;7.40;98490.00;;;;5136988;28;20778;-72
2022/03/11 10:03:37;;;;;;;2.57;1.67;;;8.10;30.00;7.50;98484.00;;;;5136834;28;20234;-74
2022/03/11 10:06:04;;;;;;;1.60;1.50;;;8.10;29.60;7.70;98496.00;;;;5118837;28;20790;-73
2022/03/11 10:08:33;;;;;;;2.67;2.10;;;8.30;29.90;7.90;98487.00;;;;5136627;28;20301;-72
2022/03/11 10:11:22;;;;;;;1.17;1.17;;;8.40;29.30;8.10;98493.00;;;;5118480;28;20309;-72
2022/03/11 10:13:50;;;;;;;1.63;1.53;;;8.70;28.60;8.10;98493.00;;;;5136682;28;20262;-72
2022/03/11 10:16:18;;;;;;;1.23;1.23;;;8.80;28.10;8.20;98472.00;;;;5136608;28;20567;-73
2022/03/11 10:18:57;;;;;;;1.47;1.43;;;8.80;27.50;8.20;98483.00;;;;5136601;28;20201;-72
2022/03/11 10:21:32;;;;;;;1.47;1.37;;;8.90;27.90;8.40;98483.00;;;;5136697;28;20221;-72
2022/03/11 10:23:59;;;;;;;3.30;2.13;;;9.00;28.20;8.50;98492.00;;;;5136564;28;20221;-74
2022/03/11 10:26:35;;;;;;;1.93;1.83;;;9.10;28.00;8.50;98484.00;;;;5136670;28;20209;-75
2022/03/11 10:29:05;;;;;;;1.93;1.80;;;9.30;27.90;8.70;98477.00;;;;5136278;27;20292;-71
2022/03/11 10:31:34;;;;;;;0.80;0.80;;;9.30;27.30;9.00;98494.00;;;;5136458;28;20228;-70
2022/03/11 10:34:21;;;;;;;2.20;1.97;;;9.50;27.30;9.10;98487.00;;;;5136665;28;20201;-71
2022/03/11 10:36:54;;;;;;;2.53;2.43;;;9.60;26.60;9.20;98480.00;;;;5136351;28;20189;-72
2022/03/11 10:39:26;;;;;;;1.03;1.03;;;9.80;26.00;9.20;98491.00;;;;5117945;28;20587;-71
2022/03/11 10:41:53;;;;;;;1.10;1.10;;;9.90;27.10;9.40;98478.00;;;;5136159;28;20225;-71
2022/03/11 10:44:25;;;;;;;3.00;1.67;;;10.00;26.20;9.60;98487.00;;;;5136164;28;20585;-74
2022/03/11 10:46:54;;;;;;;1.17;1.17;;;10.10;25.90;9.80;98486.00;;;;5118156;28;20216;-72
2022/03/11 10:49:25;;;;;;;2.07;1.97;;;10.30;25.50;10.00;98480.00;;;;5136121;28;20194;-72
2022/03/11 10:51:53;;;;;;;1.10;1.10;;;10.50;25.30;10.10;98480.00;;;;5117901;28;20374;-74
2022/03/11 10:54:25;;;;;;;2.13;1.93;;;10.60;25.60;10.10;98477.00;;;;5135940;28;20193;-71
2022/03/11 10:56:55;;;;;;;1.70;1.60;;;10.70;25.20;10.20;98480.00;;;;5136198;28;20201;-73
2022/03/11 10:59:28;;;;;;;2.20;1.30;;;10.70;24.60;10.30;98479.00;;;;5135761;28;20280;-73
2022/03/11 11:01:57;;;;;;;2.53;1.57;;;10.90;24.50;10.40;98482.00;;;;5135837;28;20229;-71
2022/03/11 11:04:25;;;;;;;1.90;1.80;;;10.90;24.20;10.50;98472.00;;;;5136020;28;20205;-74
2022/03/11 11:06:52;;;;;;;1.03;1.03;;;11.10;25.40;10.70;98471.00;;;;5135824;28;20288;-72
2022/03/11 11:09:23;;;;;;;2.20;1.80;;;11.20;24.70;10.80;98473.00;;;;5135706;28;20209;-72
2022/03/11 11:11:50;;;;;;;2.17;2.07;;;11.40;24.40;11.00;98470.00;;;;5135764;28;20220;-74